Time;durP1;ratioP1;P1;durP2;ratioP2;P2;SDS_P1;SDS_P2;PMS_P1;PMS_P2;Temp;Humidity;BMP_temperature;BMP_pressure;BME280_temperature;BME280_humidity;BME280_pressure;Samples;Min_cycle;Max_cycle;Signal;HPM_P1;HPM_P2
2023/07/08 00:00:53;;;;;;;6.65;3.92;;;18.30;99.90;;;;;;5031286;28;20060;-67
2023/07/08 00:03:20;;;;;;;7.53;4.30;;;18.30;99.90;;;;;;5031858;28;20045;-67
2023/07/08 00:05:47;;;;;;;7.72;4.40;;;18.30;99.90;;;;;;5030686;28;20096;-67
2023/07/08 00:08:14;;;;;;;7.40;4.78;;;18.20;99.90;;;;;;5031907;28;20085;-68
2023/07/08 00:10:40;;;;;;;7.65;4.45;;;18.10;99.90;;;;;;5031706;28;20487;-69
2023/07/08 00:13:08;;;;;;;6.07;4.57;;;18.10;99.90;;;;;;5030135;28;20179;-66
2023/07/08 00:15:36;;;;;;;8.00;4.40;;;18.10;99.90;;;;;;5032025;28;20065;-66
2023/07/08 00:18:09;;;;;;;6.85;4.53;;;18.10;99.90;;;;;;5031559;28;20120;-66
2023/07/08 00:20:41;;;;;;;7.43;4.65;;;18.00;99.90;;;;;;5032134;28;20127;-66
2023/07/08 00:23:09;;;;;;;7.72;4.80;;;18.00;99.90;;;;;;5049276;28;20141;-67
2023/07/08 00:25:35;;;;;;;8.63;4.45;;;18.00;99.90;;;;;;5035665;28;20052;-66
2023/07/08 00:28:01;;;;;;;8.23;4.25;;;17.90;99.90;;;;;;5035104;28;20045;-66
2023/07/08 00:30:30;;;;;;;7.90;4.45;;;17.90;99.90;;;;;;5035487;28;20041;-66
2023/07/08 00:32:57;;;;;;;7.28;4.40;;;17.90;99.90;;;;;;5034777;28;20045;-67
2023/07/08 00:35:25;;;;;;;10.65;4.80;;;17.80;99.90;;;;;;5035390;28;20052;-66
2023/07/08 00:37:52;;;;;;;8.27;5.03;;;17.80;99.90;;;;;;5035046;28;20042;-67
2023/07/08 00:40:21;;;;;;;10.77;5.30;;;17.70;99.90;;;;;;5034272;28;20045;-66
2023/07/08 00:42:47;;;;;;;11.73;5.70;;;17.70;99.90;;;;;;5033881;28;20521;-72
2023/07/08 00:45:37;;;;;;;8.85;5.40;;;17.70;99.90;;;;;;5035032;28;20049;-66
2023/07/08 00:48:22;;;;;;;9.40;6.05;;;17.70;99.90;;;;;;5034765;28;20084;-67
2023/07/08 00:50:48;;;;;;;6.88;5.10;;;17.60;99.90;;;;;;5035100;28;20083;-72
2023/07/08 00:53:29;;;;;;;8.85;5.00;;;17.60;99.90;;;;;;5033713;28;20131;-67
2023/07/08 00:56:00;;;;;;;9.60;5.25;;;17.60;99.90;;;;;;5033241;28;20483;-68
2023/07/08 00:58:33;;;;;;;8.60;5.47;;;17.60;99.90;;;;;;5034686;28;20057;-67
2023/07/08 01:01:01;;;;;;;10.40;6.78;;;17.50;99.90;;;;;;5034656;28;20092;-67
2023/07/08 01:03:28;;;;;;;12.15;6.82;;;17.50;99.90;;;;;;5034756;28;20056;-67
2023/07/08 01:05:59;;;;;;;10.23;6.28;;;17.50;99.90;;;;;;5034165;28;20057;-67
2023/07/08 01:08:28;;;;;;;9.90;6.47;;;17.40;99.90;;;;;;5034798;28;20045;-67
2023/07/08 01:11:00;;;;;;;9.52;7.40;;;17.40;99.90;;;;;;5034495;28;20045;-70
2023/07/08 01:13:26;;;;;;;9.05;6.78;;;17.40;99.90;;;;;;5033422;28;20045;-70
2023/07/08 01:15:52;;;;;;;9.63;6.93;;;17.40;99.90;;;;;;5034215;28;20045;-72
2023/07/08 01:18:21;;;;;;;12.20;7.53;;;17.30;99.90;;;;;;5033214;28;20079;-67
2023/07/08 01:20:49;;;;;;;11.48;7.15;;;17.30;99.90;;;;;;5034503;28;20045;-67
2023/07/08 01:23:16;;;;;;;11.57;7.55;;;17.30;99.90;;;;;;5034070;28;20052;-67
2023/07/08 01:25:44;;;;;;;9.95;6.32;;;17.30;99.90;;;;;;5049722;28;20156;-67
2023/07/08 01:28:10;;;;;;;10.48;6.38;;;17.30;99.90;;;;;;5033983;28;20085;-67
2023/07/08 01:30:36;;;;;;;12.27;6.03;;;17.20;99.90;;;;;;5034406;28;20372;-68
2023/07/08 01:33:06;;;;;;;8.23;5.82;;;17.20;99.90;;;;;;5033373;28;20049;-66
2023/07/08 01:35:33;;;;;;;9.68;6.60;;;17.10;99.90;;;;;;5033908;28;20423;-71
2023/07/08 01:38:02;;;;;;;9.65;6.57;;;17.10;99.90;;;;;;5033926;28;20107;-67
2023/07/08 01:40:35;;;;;;;10.35;6.50;;;17.10;99.90;;;;;;5034171;28;20056;-67
2023/07/08 01:43:03;;;;;;;9.93;6.20;;;17.00;99.90;;;;;;5033548;28;20121;-67
2023/07/08 01:45:37;;;;;;;7.47;5.70;;;17.00;99.90;;;;;;5033809;28;20041;-67
2023/07/08 01:48:07;;;;;;;10.02;5.22;;;17.00;99.90;;;;;;5033599;28;20045;-66
2023/07/08 01:50:36;;;;;;;9.63;5.88;;;17.00;99.90;;;;;;5032698;28;20509;-67
2023/07/08 01:53:08;;;;;;;10.07;5.07;;;17.00;99.90;;;;;;5033613;28;20057;-67
2023/07/08 01:55:34;;;;;;;9.75;5.47;;;17.00;99.90;;;;;;5033893;28;20048;-66
2023/07/08 01:57:59;;;;;;;10.52;5.30;;;17.00;99.90;;;;;;5033127;28;20399;-73
2023/07/08 02:00:25;;;;;;;7.90;5.00;;;17.00;99.90;;;;;;5033687;28;20052;-67
2023/07/08 02:02:51;;;;;;;6.65;5.18;;;16.90;99.90;;;;;;5033854;28;20050;-66
2023/07/08 02:05:17;;;;;;;5.80;4.75;;;16.90;99.90;;;;;;5033206;28;20459;-66
2023/07/08 02:07:43;;;;;;;8.55;4.95;;;16.90;99.90;;;;;;5032261;28;20045;-66
2023/07/08 02:10:09;;;;;;;6.53;4.82;;;16.90;99.90;;;;;;5032192;28;20076;-66
2023/07/08 02:12:35;;;;;;;6.90;5.28;;;16.90;99.90;;;;;;5033100;28;20038;-68
2023/07/08 02:15:01;;;;;;;6.60;4.75;;;17.00;99.90;;;;;;5032437;28;20141;-72
2023/07/08 02:17:30;;;;;;;8.98;4.78;;;16.70;99.90;;;;;;5033428;28;20104;-67
2023/07/08 02:19:56;;;;;;;10.30;5.20;;;16.90;99.90;;;;;;5033314;28;20045;-69
2023/07/08 02:22:22;;;;;;;8.48;5.20;;;16.80;99.90;;;;;;5031902;28;20049;-66
2023/07/08 02:24:48;;;;;;;6.55;4.78;;;16.80;99.90;;;;;;5033350;28;20406;-66
2023/07/08 02:27:14;;;;;;;7.78;4.85;;;16.80;99.90;;;;;;5032800;28;20038;-66
2023/07/08 02:29:40;;;;;;;10.80;5.70;;;16.70;99.90;;;;;;5033233;28;20395;-67
2023/07/08 02:32:09;;;;;;;8.93;4.88;;;16.70;99.90;;;;;;5032949;28;20045;-67
2023/07/08 02:34:36;;;;;;;7.45;5.22;;;16.70;99.90;;;;;;5033251;28;20045;-69
2023/07/08 02:37:02;;;;;;;8.32;5.20;;;16.70;99.90;;;;;;5033042;28;20061;-67
2023/07/08 02:39:27;;;;;;;7.53;4.82;;;16.70;99.90;;;;;;5032938;28;20399;-67
2023/07/08 02:41:53;;;;;;;7.53;5.22;;;16.70;99.90;;;;;;5032977;28;20045;-67
2023/07/08 02:44:19;;;;;;;9.07;5.28;;;16.70;99.90;;;;;;5032689;28;20041;-67
2023/07/08 02:46:45;;;;;;;6.85;4.72;;;16.70;99.90;;;;;;5030691;28;20414;-76
2023/07/08 02:49:10;;;;;;;8.95;5.32;;;16.60;99.90;;;;;;5014586;28;20107;-75
2023/07/08 02:51:36;;;;;;;12.23;5.72;;;16.60;99.90;;;;;;5032702;28;20406;-76
2023/07/08 02:54:02;;;;;;;8.63;5.57;;;16.50;99.90;;;;;;5032600;28;20505;-76
2023/07/08 02:56:28;;;;;;;12.13;6.03;;;16.60;99.90;;;;;;5014484;28;20044;-76
2023/07/08 02:58:53;;;;;;;7.35;5.45;;;16.50;99.90;;;;;;5030602;28;20113;-76
2023/07/08 03:01:19;;;;;;;7.88;5.88;;;16.50;99.90;;;;;;5014449;28;20049;-76
2023/07/08 03:03:46;;;;;;;9.35;5.53;;;16.50;99.90;;;;;;5031446;28;20041;-76
2023/07/08 03:06:13;;;;;;;7.75;5.63;;;16.50;99.90;;;;;;5030372;28;20061;-75
2023/07/08 03:08:38;;;;;;;11.43;5.72;;;16.50;99.90;;;;;;5030703;28;20045;-77
2023/07/08 03:11:06;;;;;;;10.43;5.95;;;16.50;99.90;;;;;;5030547;28;20037;-76
2023/07/08 03:13:33;;;;;;;10.00;5.90;;;16.40;99.90;;;;;;5031439;28;20095;-76
2023/07/08 03:16:00;;;;;;;9.07;5.50;;;16.40;99.90;;;;;;5032119;28;20041;-76
2023/07/08 03:18:26;;;;;;;8.88;5.88;;;16.40;99.90;;;;;;5031454;28;20057;-77
2023/07/08 03:20:55;;;;;;;11.20;5.70;;;16.40;99.90;;;;;;5031924;28;20045;-76
2023/07/08 03:23:22;;;;;;;10.30;6.18;;;16.40;99.90;;;;;;5031712;28;20046;-76
2023/07/08 03:25:48;;;;;;;7.80;5.43;;;16.40;99.90;;;;;;5031066;28;20111;-76
2023/07/08 03:28:14;;;;;;;8.45;6.10;;;16.40;99.90;;;;;;5031210;28;20568;-75
2023/07/08 03:30:41;;;;;;;10.63;6.07;;;16.40;99.90;;;;;;5032037;28;20124;-76
2023/07/08 03:33:08;;;;;;;8.02;5.43;;;16.40;99.90;;;;;;5030929;28;20128;-76
2023/07/08 03:35:38;;;;;;;8.15;6.32;;;16.40;99.90;;;;;;5047047;28;20053;-78
2023/07/08 03:38:04;;;;;;;11.63;6.18;;;16.40;99.90;;;;;;5030851;28;20049;-75
2023/07/08 03:40:31;;;;;;;10.95;5.80;;;16.40;99.90;;;;;;5030342;28;20132;-75
2023/07/08 03:42:56;;;;;;;11.32;6.13;;;16.40;99.90;;;;;;5031819;28;20072;-78
2023/07/08 03:45:22;;;;;;;9.27;6.18;;;16.30;99.90;;;;;;5031647;28;20073;-77
2023/07/08 03:47:48;;;;;;;8.35;6.43;;;16.30;99.90;;;;;;5032019;28;20046;-77
2023/07/08 03:50:23;;;;;;;9.52;6.18;;;16.30;99.90;;;;;;5031765;28;20435;-75
2023/07/08 03:52:51;;;;;;;10.85;6.28;;;16.30;99.90;;;;;;5032710;28;20055;-76
2023/07/08 03:55:17;;;;;;;10.23;6.03;;;16.30;99.90;;;;;;5033604;28;20050;-74
2023/07/08 03:57:43;;;;;;;10.85;6.15;;;16.30;99.90;;;;;;5036532;28;20045;-76
2023/07/08 04:00:09;;;;;;;9.50;6.15;;;16.30;99.90;;;;;;5021331;28;20059;-76
2023/07/08 04:02:36;;;;;;;7.30;5.40;;;16.30;99.90;;;;;;5036314;28;20151;-75
2023/07/08 04:05:03;;;;;;;9.00;6.13;;;16.40;99.90;;;;;;5035279;28;20045;-75
2023/07/08 04:07:29;;;;;;;9.23;5.78;;;16.40;99.90;;;;;;5033972;28;20502;-74
2023/07/08 04:09:55;;;;;;;8.32;5.90;;;16.40;99.90;;;;;;5034260;28;20046;-75
2023/07/08 04:12:21;;;;;;;10.50;6.15;;;16.40;99.90;;;;;;5033856;28;20055;-76
2023/07/08 04:14:46;;;;;;;9.30;6.15;;;16.40;99.90;;;;;;5018080;28;20049;-76
2023/07/08 04:17:13;;;;;;;10.63;5.50;;;16.40;99.90;;;;;;5034331;28;20129;-76
2023/07/08 04:19:39;;;;;;;11.02;5.57;;;16.40;99.90;;;;;;5034836;28;20050;-77
2023/07/08 04:22:08;;;;;;;9.98;5.90;;;16.50;99.90;;;;;;5035140;28;20053;-76
2023/07/08 04:24:34;;;;;;;9.18;5.80;;;16.50;99.90;;;;;;5033622;28;20049;-76
2023/07/08 04:27:00;;;;;;;11.00;5.35;;;16.50;99.90;;;;;;5034153;28;20111;-76
2023/07/08 04:29:26;;;;;;;8.15;5.90;;;16.50;99.90;;;;;;5034675;28;20041;-75
2023/07/08 04:31:51;;;;;;;8.98;5.93;;;16.60;99.90;;;;;;5035184;28;20056;-76
2023/07/08 04:34:17;;;;;;;10.02;5.65;;;16.70;99.90;;;;;;5034756;28;20044;-76
2023/07/08 04:36:43;;;;;;;9.10;6.00;;;16.70;99.90;;;;;;5034537;28;20055;-76
2023/07/08 04:39:10;;;;;;;6.15;5.28;;;16.80;99.90;;;;;;5034098;28;20148;-77
2023/07/08 04:41:40;;;;;;;8.82;4.93;;;16.80;99.90;;;;;;5034580;28;20038;-77
2023/07/08 04:44:07;;;;;;;9.85;5.78;;;16.90;99.90;;;;;;5033944;28;20088;-77
2023/07/08 04:46:44;;;;;;;8.52;5.57;;;16.90;99.90;;;;;;5033166;28;20057;-77
2023/07/08 04:49:10;;;;;;;7.57;5.28;;;17.10;99.90;;;;;;5034815;28;20053;-76
2023/07/08 04:51:37;;;;;;;16.00;5.63;;;17.20;99.90;;;;;;5033399;28;20049;-77
2023/07/08 04:54:03;;;;;;;10.30;5.63;;;17.40;99.90;;;;;;5034766;28;20072;-76
2023/07/08 04:56:41;;;;;;;8.15;5.47;;;18.00;99.90;;;;;;5016746;28;20053;-77
2023/07/08 04:59:22;;;;;;;7.30;4.82;;;18.70;99.90;;;;;;5033360;28;20057;-76
2023/07/08 05:01:48;;;;;;;8.18;4.80;;;19.50;99.90;;;;;;5034254;28;20057;-77
2023/07/08 05:04:16;;;;;;;7.65;4.95;;;20.20;99.90;;;;;;5033559;28;20041;-77
2023/07/08 05:06:42;;;;;;;7.22;4.47;;;20.80;99.90;;;;;;5034097;28;20046;-77
2023/07/08 05:09:08;;;;;;;7.45;4.70;;;21.20;99.90;;;;;;5032240;28;20435;-77
2023/07/08 05:11:34;;;;;;;5.57;4.07;;;21.60;99.90;;;;;;5034146;28;20053;-77
2023/07/08 05:14:01;;;;;;;8.38;4.35;;;21.90;99.90;;;;;;5034608;28;20061;-77
2023/07/08 05:16:27;;;;;;;8.60;4.35;;;22.10;99.90;;;;;;5034230;28;20052;-76
2023/07/08 05:18:53;;;;;;;10.57;4.60;;;22.40;99.90;;;;;;5034190;28;20597;-77
2023/07/08 05:21:19;;;;;;;7.30;4.32;;;22.60;99.90;;;;;;5034198;28;20045;-77
2023/07/08 05:23:46;;;;;;;7.70;4.40;;;23.20;98.80;;;;;;5033941;28;20061;-77
2023/07/08 05:26:12;;;;;;;7.97;4.30;;;23.40;98.50;;;;;;5034362;28;20399;-78
2023/07/08 05:28:38;;;;;;;7.85;4.28;;;23.70;97.90;;;;;;5032817;28;20042;-76
2023/07/08 05:31:03;;;;;;;6.88;4.07;;;24.20;97.60;;;;;;5034216;28;20045;-76
2023/07/08 05:33:31;;;;;;;6.97;4.10;;;24.50;96.60;;;;;;5033053;28;20046;-74
2023/07/08 05:35:57;;;;;;;8.02;4.00;;;24.70;96.20;;;;;;5034081;28;20124;-78
2023/07/08 05:38:24;;;;;;;5.68;3.63;;;24.70;95.80;;;;;;5034058;28;20144;-77
2023/07/08 05:40:59;;;;;;;6.38;4.07;;;24.90;95.60;;;;;;5048983;28;20056;-77
2023/07/08 05:43:26;;;;;;;7.75;4.35;;;25.10;95.10;;;;;;5033656;28;20053;-77
2023/07/08 05:45:56;;;;;;;8.20;4.22;;;25.40;94.70;;;;;;5031733;28;20057;-77
2023/07/08 05:48:22;;;;;;;6.63;4.18;;;25.60;94.70;;;;;;5033677;28;20041;-77
2023/07/08 05:50:48;;;;;;;9.52;3.90;;;25.70;94.20;;;;;;4999318;28;20115;-78
2023/07/08 05:53:13;;;;;;;6.38;3.80;;;26.10;94.10;;;;;;5033933;28;20048;-77
2023/07/08 05:55:40;;;;;;;5.53;3.28;;;26.30;93.70;;;;;;5033454;28;20107;-78
2023/07/08 05:58:05;;;;;;;6.63;3.92;;;26.40;93.50;;;;;;5033746;28;20068;-78
2023/07/08 06:00:31;;;;;;;6.47;3.90;;;26.50;93.20;;;;;;5033639;28;20391;-77
2023/07/08 06:02:57;;;;;;;7.63;3.83;;;26.70;92.70;;;;;;5015901;28;20129;-78
2023/07/08 06:05:23;;;;;;;5.60;3.60;;;26.70;92.70;;;;;;5033561;28;20057;-79
2023/07/08 06:07:48;;;;;;;9.07;3.78;;;27.00;92.90;;;;;;5031463;28;20132;-78
2023/07/08 06:10:14;;;;;;;7.25;4.00;;;27.20;92.40;;;;;;5033142;28;20042;-79
2023/07/08 06:12:41;;;;;;;7.68;3.55;;;27.40;91.80;;;;;;5032525;28;20079;-78
2023/07/08 06:15:07;;;;;;;6.32;3.45;;;27.40;91.70;;;;;;5039873;28;20045;-77
2023/07/08 06:17:33;;;;;;;5.65;3.53;;;27.40;91.70;;;;;;5032391;28;20227;-78
2023/07/08 06:19:59;;;;;;;7.85;3.33;;;27.40;91.70;;;;;;5037779;28;20054;-77
2023/07/08 06:22:24;;;;;;;7.05;3.25;;;27.60;91.70;;;;;;5033547;28;20107;-77
2023/07/08 06:24:50;;;;;;;8.82;3.90;;;27.70;91.10;;;;;;5033099;28;20067;-77
2023/07/08 06:27:16;;;;;;;8.27;3.80;;;27.90;91.00;;;;;;5033017;28;20502;-77
2023/07/08 06:29:42;;;;;;;5.30;3.47;;;27.90;91.10;;;;;;5032522;28;20046;-77
2023/07/08 06:32:08;;;;;;;5.03;3.40;;;27.90;90.90;;;;;;5033084;28;20084;-77
2023/07/08 06:34:33;;;;;;;5.78;2.95;;;28.10;91.10;;;;;;5031985;28;20122;-77
2023/07/08 06:36:59;;;;;;;7.75;3.05;;;28.50;90.30;;;;;;5031686;28;20534;-77
2023/07/08 06:39:25;;;;;;;5.05;3.33;;;28.40;89.90;;;;;;5031802;28;20099;-77
2023/07/08 06:41:51;;;;;;;6.55;3.75;;;28.70;90.20;;;;;;5032660;28;20045;-77
2023/07/08 06:44:16;;;;;;;6.35;3.55;;;28.70;89.10;;;;;;5032723;28;20124;-77
2023/07/08 06:46:42;;;;;;;8.65;3.30;;;28.60;89.90;;;;;;5030835;28;20052;-76
2023/07/08 06:49:09;;;;;;;6.85;3.20;;;28.60;90.10;;;;;;5032548;28;20163;-77
2023/07/08 06:51:35;;;;;;;7.90;3.13;;;28.70;90.10;;;;;;5031619;28;20068;-77
2023/07/08 06:54:10;;;;;;;5.75;3.40;;;29.10;89.60;;;;;;5032034;28;20048;-77
2023/07/08 06:56:38;;;;;;;5.38;3.20;;;29.10;88.10;;;;;;5031499;28;20038;-76
2023/07/08 06:59:04;;;;;;;5.65;2.70;;;29.10;88.60;;;;;;5032133;28;20058;-76
2023/07/08 07:01:31;;;;;;;5.38;2.92;;;29.20;88.90;;;;;;5031635;28;20057;-78
2023/07/08 07:03:57;;;;;;;5.32;2.80;;;29.30;87.80;;;;;;5032235;28;20506;-79
2023/07/08 07:06:23;;;;;;;5.43;3.05;;;29.30;88.60;;;;;;5029949;28;20061;-77
2023/07/08 07:08:48;;;;;;;6.65;2.95;;;29.40;88.20;;;;;;5031267;28;20049;-78
2023/07/08 07:11:14;;;;;;;5.18;3.13;;;29.50;88.40;;;;;;5031191;28;20048;-77
2023/07/08 07:13:40;;;;;;;6.63;3.42;;;29.90;88.20;;;;;;5030534;28;20064;-78
2023/07/08 07:16:06;;;;;;;6.60;3.08;;;30.60;87.40;;;;;;5030944;28;20052;-78
2023/07/08 07:18:32;;;;;;;6.10;3.28;;;30.80;86.90;;;;;;5030666;28;20045;-79
2023/07/08 07:20:59;;;;;;;4.47;2.70;;;31.10;86.40;;;;;;5032393;28;20132;-78
2023/07/08 07:23:24;;;;;;;7.72;3.10;;;31.20;85.20;;;;;;5032734;28;20478;-79
2023/07/08 07:25:50;;;;;;;8.07;3.03;;;31.40;84.80;;;;;;5031714;28;20044;-78
2023/07/08 07:28:17;;;;;;;6.32;2.67;;;31.50;84.90;;;;;;5032062;28;20471;-79
2023/07/08 07:30:47;;;;;;;6.32;3.13;;;31.60;84.00;;;;;;5031776;28;20118;-79
2023/07/08 07:33:13;;;;;;;6.68;2.83;;;31.80;83.20;;;;;;5031494;28;20081;-78
2023/07/08 07:35:45;;;;;;;4.57;2.63;;;31.80;83.10;;;;;;5031864;28;20049;-78
2023/07/08 07:38:11;;;;;;;5.70;2.92;;;32.00;83.00;;;;;;5032023;28;20037;-79
2023/07/08 07:40:39;;;;;;;6.35;2.55;;;32.20;83.10;;;;;;5031800;28;20045;-79
2023/07/08 07:43:05;;;;;;;6.70;2.70;;;32.20;82.30;;;;;;5031944;28;20045;-78
2023/07/08 07:45:31;;;;;;;5.80;2.80;;;32.00;82.80;;;;;;5032539;28;20048;-79
2023/07/08 07:47:56;;;;;;;5.57;2.80;;;31.90;83.20;;;;;;5031535;28;20041;-78
2023/07/08 07:50:22;;;;;;;6.88;3.25;;;32.20;83.40;;;;;;5032078;28;20446;-79
2023/07/08 07:52:48;;;;;;;5.18;2.47;;;32.50;82.90;;;;;;5030491;28;20479;-75
2023/07/08 07:55:14;;;;;;;4.35;2.65;;;32.90;82.50;;;;;;5030839;28;20225;-78
2023/07/08 07:57:41;;;;;;;4.28;2.90;;;33.00;81.50;;;;;;5031438;28;20495;-78
2023/07/08 08:00:08;;;;;;;6.32;2.83;;;33.20;80.50;;;;;;5030649;28;20060;-78
2023/07/08 08:02:34;;;;;;;4.13;2.72;;;32.80;80.60;;;;;;5031917;28;20060;-78
2023/07/08 08:05:00;;;;;;;4.35;2.40;;;32.60;80.30;;;;;;5031669;28;20049;-78
2023/07/08 08:07:26;;;;;;;5.47;2.78;;;32.30;80.50;;;;;;5031801;28;20539;-79
2023/07/08 08:09:52;;;;;;;7.13;2.78;;;32.10;81.20;;;;;;5030660;28;20042;-76
2023/07/08 08:12:18;;;;;;;4.95;2.80;;;32.30;81.60;;;;;;5030885;28;20479;-79
2023/07/08 08:14:43;;;;;;;5.45;2.63;;;32.30;81.20;;;;;;5030981;28;20079;-78
2023/07/08 08:17:09;;;;;;;5.50;2.75;;;32.50;81.00;;;;;;5030136;28;20052;-78
2023/07/08 08:19:35;;;;;;;6.07;2.58;;;32.60;80.80;;;;;;5031728;28;20045;-75
2023/07/08 08:22:01;;;;;;;10.07;3.05;;;32.60;80.40;;;;;;5031512;28;20046;-78
2023/07/08 08:24:27;;;;;;;6.00;3.00;;;32.50;80.30;;;;;;5031611;28;20474;-79
2023/07/08 08:26:52;;;;;;;5.65;2.42;;;32.20;81.10;;;;;;5031376;28;20402;-74
2023/07/08 08:29:18;;;;;;;6.60;2.80;;;32.30;81.20;;;;;;5033628;28;20042;-79
2023/07/08 08:31:44;;;;;;;7.10;2.95;;;32.40;81.20;;;;;;5033005;28;20128;-79
2023/07/08 08:34:09;;;;;;;6.57;3.00;;;32.40;81.20;;;;;;5033346;28;20045;-79
2023/07/08 08:36:35;;;;;;;4.55;2.85;;;32.70;81.20;;;;;;5039320;28;20056;-78
2023/07/08 08:39:01;;;;;;;4.55;2.72;;;32.90;81.00;;;;;;5042193;28;20045;-76
2023/07/08 08:41:32;;;;;;;6.70;2.83;;;33.10;81.10;;;;;;5040738;28;20068;-76
2023/07/08 08:43:59;;;;;;;5.10;2.60;;;33.30;80.60;;;;;;5038781;28;20083;-74
2023/07/08 08:46:54;;;;;;;4.45;2.60;;;33.70;81.60;;;;;;5036378;28;20056;-76
2023/07/08 08:49:20;;;;;;;4.22;2.47;;;34.40;79.80;;;;;;5035436;28;20048;-76
2023/07/08 08:51:50;;;;;;;3.47;2.42;;;34.70;80.40;;;;;;5035222;28;20045;-77
2023/07/08 08:54:16;;;;;;;6.47;2.35;;;34.60;78.50;;;;;;5034725;28;20253;-79
2023/07/08 08:56:48;;;;;;;4.30;2.50;;;34.60;78.40;;;;;;5033952;28;20056;-79
2023/07/08 08:59:35;;;;;;;5.78;2.75;;;34.70;79.40;;;;;;5034795;28;20053;-79
2023/07/08 09:02:02;;;;;;;5.20;2.65;;;35.10;79.00;;;;;;5034740;28;20132;-79
2023/07/08 09:04:33;;;;;;;4.80;2.70;;;34.80;78.60;;;;;;5049960;28;20461;-78
2023/07/08 09:07:14;;;;;;;5.93;2.60;;;34.70;78.20;;;;;;5034327;28;20042;-75
2023/07/08 09:09:50;;;;;;;5.80;2.90;;;34.60;77.70;;;;;;5034596;28;20041;-79
2023/07/08 09:12:25;;;;;;;5.03;2.45;;;34.60;78.70;;;;;;5033365;28;20142;-78
2023/07/08 09:14:51;;;;;;;3.58;2.33;;;34.90;78.90;;;;;;5034558;28;20041;-78
2023/07/08 09:17:22;;;;;;;3.60;2.15;;;34.70;79.00;;;;;;5034007;28;20115;-79
2023/07/08 09:20:12;;;;;;;7.47;2.80;;;34.90;78.80;;;;;;5033518;28;20107;-78
2023/07/08 09:22:45;;;;;;;4.75;2.20;;;34.90;77.50;;;;;;5034728;28;20132;-79
2023/07/08 09:25:46;;;;;;;7.07;2.65;;;34.80;78.00;;;;;;5034015;28;20103;-79
2023/07/08 09:28:14;;;;;;;5.80;2.55;;;34.90;78.10;;;;;;5033855;28;20038;-78
2023/07/08 09:30:40;;;;;;;4.50;2.65;;;34.90;76.90;;;;;;5033091;28;20119;-78
2023/07/08 09:33:08;;;;;;;6.13;2.67;;;35.00;77.10;;;;;;5032933;28;20478;-78
2023/07/08 09:35:46;;;;;;;4.28;2.70;;;35.00;76.90;;;;;;5034198;28;20092;-78
2023/07/08 09:38:22;;;;;;;5.97;2.72;;;34.80;76.50;;;;;;5033510;28;20114;-78
2023/07/08 09:40:56;;;;;;;4.63;2.38;;;34.50;76.30;;;;;;5034069;28;20424;-79
2023/07/08 09:43:27;;;;;;;4.15;2.40;;;34.50;76.50;;;;;;5035065;28;20099;-77
2023/07/08 09:45:58;;;;;;;4.38;2.65;;;34.50;76.90;;;;;;5033946;28;20068;-77
2023/07/08 09:48:26;;;;;;;5.47;2.50;;;34.50;76.60;;;;;;5031748;28;20037;-79
2023/07/08 09:50:55;;;;;;;3.83;2.47;;;34.50;77.30;;;;;;5032033;28;20087;-79
2023/07/08 09:53:21;;;;;;;5.20;2.72;;;34.70;77.50;;;;;;5047724;28;20045;-77
2023/07/08 09:55:49;;;;;;;4.63;2.53;;;34.80;77.40;;;;;;5031148;28;20075;-77
2023/07/08 09:58:22;;;;;;;5.78;2.60;;;34.80;77.00;;;;;;5031324;28;20053;-77
2023/07/08 10:00:53;;;;;;;5.57;2.55;;;34.70;76.70;;;;;;5033841;28;20060;-77
2023/07/08 10:03:26;;;;;;;6.38;2.70;;;34.50;76.80;;;;;;5033309;28;20045;-77
2023/07/08 10:05:57;;;;;;;7.60;2.97;;;34.40;76.90;;;;;;5033495;28;20048;-76
2023/07/08 10:08:24;;;;;;;4.75;2.70;;;34.10;77.00;;;;;;5031771;28;20045;-78
2023/07/08 10:11:03;;;;;;;5.75;2.55;;;33.80;77.50;;;;;;5048684;28;20045;-79
2023/07/08 10:13:40;;;;;;;4.10;2.70;;;33.60;78.00;;;;;;5032716;28;20060;-79
2023/07/08 10:16:27;;;;;;;4.88;2.55;;;33.60;78.40;;;;;;5048536;28;20092;-78
2023/07/08 10:18:53;;;;;;;7.20;3.08;;;33.40;78.20;;;;;;5032488;28;20033;-78
2023/07/08 10:21:53;;;;;;;5.57;3.20;;;33.30;78.70;;;;;;5033061;28;20037;-79
2023/07/08 10:24:25;;;;;;;6.00;3.20;;;33.30;79.80;;;;;;5032880;28;20085;-77
2023/07/08 10:27:16;;;;;;;6.20;2.78;;;33.10;78.90;;;;;;5033096;28;20121;-77
2023/07/08 10:30:02;;;;;;;5.25;2.75;;;32.90;79.20;;;;;;5032771;28;20050;-76
2023/07/08 10:32:44;;;;;;;6.22;3.17;;;32.80;79.40;;;;;;5032399;28;20139;-77
2023/07/08 10:35:21;;;;;;;5.32;3.08;;;32.50;79.90;;;;;;5047408;28;20049;-74
2023/07/08 10:38:05;;;;;;;5.97;2.90;;;32.50;79.90;;;;;;5031412;28;20180;-75
2023/07/08 10:40:53;;;;;;;3.53;2.80;;;32.40;79.60;;;;;;5031934;28;20179;-76
2023/07/08 10:43:21;;;;;;;4.72;2.88;;;32.30;78.80;;;;;;5032135;28;20095;-75
2023/07/08 10:46:14;;;;;;;5.63;3.30;;;32.20;79.60;;;;;;5031500;28;20057;-77
2023/07/08 10:48:59;;;;;;;7.82;2.95;;;32.30;80.30;;;;;;5031495;28;20053;-75
2023/07/08 10:51:58;;;;;;;3.70;2.72;;;32.10;79.80;;;;;;5031313;28;20048;-76
2023/07/08 10:54:42;;;;;;;4.32;2.75;;;32.10;80.40;;;;;;5031629;28;20045;-75
2023/07/08 10:57:23;;;;;;;4.82;3.10;;;32.20;80.60;;;;;;5032567;28;20445;-75
2023/07/08 11:00:28;;;;;;;7.38;2.95;;;32.10;79.90;;;;;;5033582;28;20057;-77
2023/07/08 11:03:09;;;;;;;6.20;3.10;;;32.10;79.60;;;;;;5045017;28;20095;-77
2023/07/08 11:06:03;;;;;;;7.80;2.80;;;32.00;80.30;;;;;;5037226;28;20581;-76
2023/07/08 11:08:36;;;;;;;;;;;32.10;80.50;;;;;;5031862;28;20037;-75
2023/07/08 11:11:33;;;;;;;6.75;3.35;;;32.10;79.70;;;;;;5015510;28;19921;-77
2023/07/08 11:14:10;;;;;;;7.70;3.40;;;32.00;79.90;;;;;;5032307;28;20525;-78
2023/07/08 11:17:00;;;;;;;4.60;3.20;;;32.00;79.40;;;;;;5030912;28;20045;-76
2023/07/08 11:19:38;;;;;;;5.00;3.28;;;32.10;79.20;;;;;;5017005;28;20053;-77
2023/07/08 11:22:10;;;;;;;6.65;3.13;;;32.00;79.10;;;;;;5031574;28;20418;-77
2023/07/08 11:24:51;;;;;;;3.55;2.65;;;32.10;79.60;;;;;;5030978;28;20050;-76
2023/07/08 11:27:33;;;;;;;5.22;2.97;;;32.20;79.50;;;;;;5032059;28;20049;-76
2023/07/08 11:30:13;;;;;;;5.53;3.22;;;32.20;78.60;;;;;;5031167;28;20049;-77
2023/07/08 11:32:40;;;;;;;5.60;3.30;;;32.10;78.40;;;;;;5030783;28;20037;-76
2023/07/08 11:35:19;;;;;;;4.60;2.83;;;32.10;79.00;;;;;;5031115;28;20208;-76
2023/07/08 11:37:45;;;;;;;6.30;3.40;;;32.10;79.50;;;;;;5031958;28;20568;-77
2023/07/08 11:40:19;;;;;;;7.80;3.00;;;32.00;80.00;;;;;;5032230;28;20053;-74
2023/07/08 11:42:51;;;;;;;5.63;3.08;;;32.10;80.50;;;;;;5030580;28;20129;-75
2023/07/08 11:45:17;;;;;;;6.68;3.38;;;32.10;79.30;;;;;;5031018;28;20052;-75
2023/07/08 11:47:49;;;;;;;7.65;3.20;;;32.20;80.40;;;;;;5031155;28;20054;-74
2023/07/08 11:50:24;;;;;;;5.87;3.50;;;32.10;79.10;;;;;;5032013;28;20049;-74
2023/07/08 11:53:07;;;;;;;5.75;3.17;;;32.20;78.70;;;;;;5031091;28;20046;-73
2023/07/08 11:55:42;;;;;;;4.47;2.88;;;32.10;78.50;;;;;;5031452;28;20041;-74
2023/07/08 11:58:23;;;;;;;5.65;3.17;;;32.10;78.60;;;;;;5030689;28;20523;-72
2023/07/08 12:01:00;;;;;;;4.40;3.00;;;32.10;79.00;;;;;;5031776;28;20149;-74
2023/07/08 12:03:38;;;;;;;4.47;3.25;;;32.00;78.40;;;;;;5031621;28;20483;-73
2023/07/08 12:06:26;;;;;;;5.32;3.40;;;32.10;77.90;;;;;;5031719;28;20049;-75
2023/07/08 12:08:58;;;;;;;5.10;3.22;;;31.90;78.50;;;;;;5031792;28;20049;-73
2023/07/08 12:11:32;;;;;;;6.22;3.15;;;32.00;78.20;;;;;;5031290;28;20503;-74
2023/07/08 12:14:00;;;;;;;5.78;3.17;;;32.10;79.00;;;;;;5031911;28;20053;-74
2023/07/08 12:16:31;;;;;;;5.95;3.20;;;32.30;78.60;;;;;;5031219;28;20128;-74
2023/07/08 12:18:59;;;;;;;7.45;3.45;;;32.40;78.50;;;;;;5033200;28;20053;-74
2023/07/08 12:21:27;;;;;;;6.00;3.30;;;32.30;77.90;;;;;;5035231;28;20045;-74
2023/07/08 12:23:53;;;;;;;5.80;3.17;;;32.30;78.00;;;;;;5035417;28;20052;-74
2023/07/08 12:26:19;;;;;;;7.82;3.50;;;32.20;78.20;;;;;;5034095;28;20045;-73
2023/07/08 12:28:45;;;;;;;5.95;3.63;;;32.10;77.80;;;;;;5033712;28;20077;-73
2023/07/08 12:31:23;;;;;;;6.00;3.17;;;32.10;77.80;;;;;;5034098;28;20085;-74
2023/07/08 12:33:50;;;;;;;5.65;3.28;;;32.10;78.10;;;;;;5034836;28;20045;-73
2023/07/08 12:36:22;;;;;;;4.65;3.20;;;32.00;78.20;;;;;;5035070;28;20053;-74
2023/07/08 12:38:49;;;;;;;4.95;3.25;;;32.00;78.40;;;;;;5034658;28;20117;-73
2023/07/08 12:41:27;;;;;;;5.97;3.40;;;32.10;78.70;;;;;;5034014;28;20136;-73
2023/07/08 12:43:53;;;;;;;4.57;3.10;;;32.10;78.70;;;;;;5050495;28;20076;-72
2023/07/08 12:46:21;;;;;;;4.95;3.30;;;32.10;78.20;;;;;;5034707;28;20506;-73
2023/07/08 12:48:47;;;;;;;5.90;3.53;;;32.10;78.80;;;;;;5034574;28;20437;-72
2023/07/08 12:51:16;;;;;;;8.63;3.60;;;32.20;78.50;;;;;;5034049;28;20049;-72
2023/07/08 12:53:43;;;;;;;6.30;3.58;;;32.30;77.50;;;;;;5034530;28;20065;-72
2023/07/08 12:56:09;;;;;;;6.15;3.42;;;32.30;78.50;;;;;;5035042;28;20480;-72
2023/07/08 12:58:40;;;;;;;7.07;3.63;;;32.40;78.60;;;;;;5033074;28;20063;-71